Latest Weather Observations for Mount Moornapa

IDV60801

Issued at 11:35 am EST Wednesday 23 July 2014 (issued every 30 minutes, with the page automatically refreshed every 10 minutes)

About weather observations | Map of weather stations | Latest weather observations for VIC | Other Formats
Station Details ID: 085296 Name: MOUNT MOORNAPA Lat: -37.75 Lon: 147.14 Height: 480.0 m
Data from the previous 72 hours. | See also: Recent months at Mount Moornapa
Date/Time
EST
Temp
°C
App
Temp
°C
Dew
Point
Rel
Hum
%
Delta-T
°C
Wind Press
QNH
hPa
Press
MSL
hPa
Rain
since 9 am
mm
Dir
 
Spd
km/h
Gust
km/h
Spd
kts
Gust
kts
23/11:30am 9.1 8.0 5.1 76 1.8 S 0 0 0 0 - - 0.0
23/11:00am 8.2 6.1 3.9 74 1.9 ESE 4 7 2 4 - - 0.0
23/10:30am 8.7 6.8 3.1 68 2.5 ENE 2 6 1 3 - - 0.0
23/10:00am 8.0 6.3 1.6 64 2.7 CALM 0 0 0 0 - - 0.0
23/09:30am 7.2 4.9 2.5 72 2.0 NE 4 6 2 3 - - 0.0
23/09:00am 6.1 3.2 1.4 72 1.9 NNE 6 9 3 5 - - 0.0
23/08:30am 5.6 2.7 1.2 73 1.8 NNE 6 7 3 4 - - 0.0
23/08:00am 4.2 1.1 1.2 81 1.2 NNE 7 9 4 5 - - 0.0
23/07:30am 4.6 1.8 2.1 84 1.0 N 6 7 3 4 - - 0.0
23/07:00am 4.8 2.3 1.7 80 1.3 NE 4 6 2 3 - - 0.0
23/06:30am 4.4 1.8 3.4 93 0.4 NNE 6 9 3 5 - - 0.0
23/06:00am 4.7 1.7 2.1 83 1.1 N 7 9 4 5 - - 0.0
23/05:30am 4.9 1.6 2.4 84 1.0 N 9 11 5 6 - - 0.0
23/05:00am 4.6 0.9 2.6 87 0.8 N 11 13 6 7 - - 0.0
23/04:30am 4.5 0.5 2.8 89 0.7 N 13 17 7 9 - - 0.0
23/04:00am 4.6 1.0 3.1 90 0.6 N 11 15 6 8 - - 0.0
23/03:30am 4.8 1.3 3.5 91 0.6 N 11 15 6 8 - - 0.0
23/03:00am 4.8 1.3 3.6 92 0.5 N 11 15 6 8 - - 0.0
23/02:30am 5.0 1.6 3.8 92 0.5 N 11 17 6 9 - - 0.0
23/02:00am 5.6 2.2 4.1 90 0.7 N 11 17 6 9 - - 0.0
23/01:30am 5.5 2.5 4.3 92 0.5 N 9 13 5 7 - - 0.0
23/01:00am 5.7 2.8 4.7 93 0.4 N 9 13 5 7 - - 0.0
23/12:30am 5.8 2.8 4.3 90 0.7 N 9 11 5 6 - - 0.0
23/12:00am 5.2 2.6 4.2 93 0.4 N 7 9 4 5 - - 0.0
 
Date/Time
EST
Temp
°C
App
Temp
°C
Dew
Point
Rel
Hum
%
Delta-T
°C
Wind Press
QNH
hPa
Press
MSL
hPa
Rain
since 9 am
mm
Dir
 
Spd
km/h
Gust
km/h
Spd
kts
Gust
kts
22/11:30pm 5.7 3.2 4.0 89 0.7 NE 6 9 3 5 - - 0.0
22/11:00pm 5.7 3.2 4.0 89 0.7 E 6 11 3 6 - - 0.0
22/10:30pm 5.7 3.1 4.3 91 0.6 NNE 7 11 4 6 - - 0.0
22/10:00pm 5.5 3.0 4.5 93 0.4 NNE 7 11 4 6 - - 0.0
22/09:30pm 5.7 3.4 4.7 93 0.4 NE 6 11 3 6 - - 0.0
22/09:00pm 5.8 3.5 4.8 93 0.4 E 6 11 3 6 - - 0.0
22/08:30pm 5.8 3.4 5.1 95 0.3 E 7 11 4 6 - - 0.0
22/08:00pm 5.8 2.9 4.8 93 0.4 E 9 11 5 6 - - 0.0
22/07:30pm 6.2 3.4 5.2 93 0.5 E 9 13 5 7 - - 0.0
22/07:00pm 6.1 3.6 4.9 92 0.5 E 7 11 4 6 - - 0.0
22/06:30pm 6.1 4.1 4.6 90 0.7 E 4 6 2 3 - - 0.0
22/06:00pm 6.0 4.1 4.8 92 0.5 ESE 4 7 2 4 - - 0.0
22/05:30pm 6.7 4.5 5.3 91 0.6 ESE 6 7 3 4 - - 0.0
22/05:00pm 7.3 5.2 5.6 89 0.8 SE 6 7 3 4 - - 0.0
22/04:30pm 8.4 6.6 5.5 82 1.3 SE 4 7 2 4 - - 0.0
22/04:00pm 9.1 7.4 5.7 79 1.6 SE 4 6 2 3 - - 0.0
22/03:30pm 9.7 7.9 5.5 75 2.0 SE 4 4 2 2 - - 0.0
22/03:00pm 9.8 8.1 5.8 76 1.9 SE 4 7 2 4 - - 0.0
22/02:30pm 10.1 8.3 5.5 73 2.2 SE 4 7 2 4 - - 0.0
22/02:00pm 10.6 9.0 6.2 74 2.1 SE 4 7 2 4 - - 0.0
22/01:30pm 10.1 8.4 6.1 76 1.9 SE 4 6 2 3 - - 0.0
22/01:00pm 10.0 8.4 6.2 77 1.8 SE 4 7 2 4 - - 0.0
22/12:30pm 9.3 7.6 5.9 79 1.6 SE 4 7 2 4 - - 0.0
22/12:00pm 9.3 8.0 5.9 79 1.6 SW 2 6 1 3 - - 0.0
22/11:30am 9.2 7.8 5.4 77 1.8 E 2 9 1 5 - - 0.0
22/11:00am 8.7 6.9 5.3 79 1.6 NNE 4 9 2 5 - - 0.0
22/10:30am 7.9 5.5 4.3 78 1.6 NE 6 7 3 4 - - 0.0
22/10:00am 7.0 4.5 4.0 81 1.3 N 6 7 3 4 - - 0.0
22/09:30am 6.6 4.4 3.6 81 1.3 N 4 6 2 3 - - 0.0
22/09:00am 5.0 1.4 3.0 87 0.8 N 11 15 6 8 - - 0.0
22/08:30am 4.2 0.5 2.6 89 0.7 N 11 17 6 9 - - 0.0
22/08:00am 3.8 -0.2 2.6 92 0.5 N 13 19 7 10 - - 0.0
22/07:30am 3.5 -0.9 2.6 94 0.4 N 15 19 8 10 - - 0.0
22/07:00am 3.5 -0.6 2.3 92 0.5 N 13 17 7 9 - - 0.0
22/06:30am 3.9 0.2 2.6 91 0.5 N 11 13 6 7 - - 0.0
22/06:00am 4.4 1.7 2.8 89 0.7 N 6 7 3 4 - - 0.0
22/05:30am 4.9 3.4 2.9 87 0.8 CALM 0 4 0 2 - - 0.0
22/05:00am 5.0 3.4 2.5 84 1.0 CALM 0 0 0 0 - - 0.0
22/04:30am 5.7 4.2 2.9 82 1.2 CALM 0 0 0 0 - - 0.0
22/04:00am 5.6 3.4 3.1 84 1.1 NE 4 6 2 3 - - 0.0
22/03:30am 5.6 3.0 3.3 85 1.0 N 6 6 3 3 - - 0.0
22/03:00am 4.8 2.0 3.0 88 0.8 N 7 9 4 5 - - 0.0
22/02:30am 4.7 2.1 3.4 91 0.6 NNE 6 7 3 4 - - 0.0
22/02:00am 4.5 2.3 3.5 93 0.4 ENE 4 7 2 4 - - 0.0
22/01:30am 5.4 3.6 3.7 89 0.7 ESE 2 4 1 2 - - 0.0
22/01:00am 5.6 3.4 3.6 87 0.9 SE 4 6 2 3 - - 0.0
22/12:30am 6.1 4.6 2.9 80 1.4 CALM 0 0 0 0 - - 0.0
22/12:00am 6.9 5.5 3.3 78 1.6 CALM 0 0 0 0 - - 0.0
 
Date/Time
EST
Temp
°C
App
Temp
°C
Dew
Point
Rel
Hum
%
Delta-T
°C
Wind Press
QNH
hPa
Press
MSL
hPa
Rain
since 9 am
mm
Dir
 
Spd
km/h
Gust
km/h
Spd
kts
Gust
kts
21/11:30pm 6.7 4.6 3.7 81 1.3 NNE 4 4 2 2 - - 0.0
21/11:00pm 6.7 4.6 3.7 81 1.3 NE 4 6 2 3 - - 0.0
21/10:30pm 6.3 4.2 3.8 84 1.1 NE 4 6 2 3 - - 0.0
21/10:00pm 6.6 4.6 4.4 86 1.0 NNE 4 6 2 3 - - 0.0
21/09:30pm 6.3 4.4 4.8 90 0.7 NNE 4 6 2 3 - - 0.0
21/09:00pm 7.1 4.9 3.3 77 1.7 NNE 4 6 2 3 - - 0.0
21/08:30pm 6.8 4.6 3.2 78 1.6 NE 4 6 2 3 - - 0.0
21/08:00pm 6.6 5.2 3.6 81 1.3 CALM 0 0 0 0 - - 0.0
21/07:30pm 6.8 5.4 3.4 79 1.5 CALM 0 0 0 0 - - 0.0
21/07:00pm 6.8 5.1 3.8 81 1.3 E 2 4 1 2 - - 0.0
21/06:30pm 6.7 5.0 4.2 84 1.1 SE 2 4 1 2 - - 0.0
21/06:00pm 6.9 5.2 4.0 82 1.3 SSE 2 4 1 2 - - 0.0
21/05:30pm 6.9 5.2 4.2 83 1.2 SSE 2 4 1 2 - - 0.0
21/05:00pm 7.1 5.5 4.4 83 1.2 SSE 2 6 1 3 - - 0.0
21/04:30pm 7.5 6.0 5.0 84 1.1 SSE 2 4 1 2 - - 0.0
21/04:00pm 7.8 6.3 4.9 82 1.3 SSE 2 4 1 2 - - 0.0
21/03:30pm 8.2 6.7 4.8 79 1.5 SSE 2 4 1 2 - - 0.0
21/03:00pm 9.2 8.1 5.0 75 1.9 CALM 0 2 0 1 - - 0.0
21/02:30pm 9.0 7.9 5.0 76 1.8 CALM 0 2 0 1 - - 0.0
21/02:00pm 9.0 7.0 4.4 73 2.1 SE 4 7 2 4 - - 0.0
21/01:30pm 9.3 7.5 5.3 76 1.9 SSE 4 9 2 5 - - 0.0
21/01:00pm 9.1 7.3 5.3 77 1.8 SSE 4 6 2 3 - - 0.0
21/12:30pm 8.2 6.5 4.2 76 1.8 SSE 2 4 1 2 - - 0.0
21/12:00pm 9.1 7.5 4.3 72 2.2 SSE 2 4 1 2 - - 0.0
21/11:30am 9.3 7.7 4.3 71 2.3 SE 2 4 1 2 - - 0.0
21/11:00am 8.3 6.9 3.6 72 2.1 CALM 0 4 0 2 - - 0.0
21/10:30am 7.5 5.3 3.4 75 1.8 NNW 4 6 2 3 - - 0.0
21/10:00am 6.5 3.7 3.3 80 1.4 N 7 11 4 6 - - 0.0
21/09:30am 6.1 3.5 3.4 83 1.2 N 6 9 3 5 - - 0.0
21/09:00am 5.7 2.5 3.2 84 1.1 N 9 11 5 6 - - 0.0
21/08:30am 5.4 2.7 3.6 88 0.8 N 7 11 4 6 - - 0.0
21/08:00am 5.2 2.2 4.2 93 0.4 N 9 9 5 5 - - 0.0
21/07:30am 5.3 2.9 4.1 92 0.5 NNE 6 9 3 5 - - 0.0
21/07:00am 5.3 2.7 4.0 91 0.6 N 7 9 4 5 - - 0.0
21/06:30am 5.8 3.4 4.1 89 0.7 NNE 6 9 3 5 - - 0.0
21/06:00am 6.0 3.4 4.2 88 0.8 N 7 7 4 4 - - 0.0
21/05:30am 6.3 3.7 3.3 81 1.3 NE 6 7 3 4 - - 0.0
21/05:00am 5.9 3.7 3.2 83 1.2 E 4 7 2 4 - - 0.0
21/04:30am 6.1 4.3 3.3 82 1.2 E 2 4 1 2 - - 0.0
21/04:00am 6.2 4.4 3.2 81 1.3 E 2 4 1 2 - - 0.0
21/03:30am 6.1 3.9 3.4 83 1.2 E 4 7 2 4 - - 0.0
21/03:00am 6.4 4.3 3.7 83 1.2 E 4 6 2 3 - - 0.0
21/02:30am 6.7 4.7 4.5 86 1.0 E 4 7 2 4 - - 0.0
21/02:00am 7.0 4.8 5.5 90 0.7 NE 6 7 3 4 - - 0.0
21/01:30am 6.9 4.8 5.8 93 0.5 NNE 6 7 3 4 - - 0.0
21/01:00am 7.1 5.0 5.9 92 0.6 N 6 7 3 4 - - 0.0
21/12:30am 7.2 5.1 5.8 91 0.6 NNE 6 7 3 4 - - 0.0
21/12:00am 7.1 5.0 6.0 93 0.5 N 6 7 3 4 - - 0.0
 
Date/Time
EST
Temp
°C
App
Temp
°C
Dew
Point
Rel
Hum
%
Delta-T
°C
Wind Press
QNH
hPa
Press
MSL
hPa
Rain
since 9 am
mm
Dir
 
Spd
km/h
Gust
km/h
Spd
kts
Gust
kts
20/11:30pm 7.2 5.5 6.1 93 0.5 NNE 4 6 2 3 - - 0.0
20/11:00pm 7.1 5.4 6.0 93 0.5 ENE 4 6 2 3 - - 0.0
20/10:30pm 7.4 6.5 6.2 92 0.6 CALM 0 0 0 0 - - 0.0
20/10:00pm 7.5 6.7 6.3 92 0.6 CALM 0 0 0 0 - - 0.0
20/09:30pm 7.2 6.2 5.8 91 0.6 CALM 0 0 0 0 - - 0.0
20/09:00pm 7.3 6.4 6.2 93 0.5 CALM 0 0 0 0 - - 0.0
20/08:30pm 7.3 6.4 6.2 93 0.5 CALM 0 0 0 0 - - 0.0
20/08:00pm 7.4 6.6 6.3 93 0.5 CALM 0 0 0 0 - - 0.0
20/07:30pm 7.2 6.3 6.0 92 0.6 CALM 0 0 0 0 - - 0.0
20/07:00pm 7.3 6.3 5.6 89 0.8 CALM 0 0 0 0 - - 0.0
20/06:30pm 7.3 5.6 5.8 90 0.7 SSE 4 4 2 2 - - 0.0
20/06:00pm 7.3 5.5 5.6 89 0.8 SSE 4 4 2 2 - - 0.0
20/05:30pm 7.4 5.7 5.7 89 0.8 SSE 4 4 2 2 - - 0.0
20/05:00pm 7.4 6.0 5.7 89 0.8 SE 2 4 1 2 - - 0.0
20/04:30pm 7.8 6.9 5.9 88 0.9 CALM 0 4 0 2 - - 0.0
20/04:00pm 8.6 7.7 6.2 85 1.1 CALM 0 2 0 1 - - 0.0
20/03:30pm 9.1 7.5 6.4 83 1.3 SSE 4 7 2 4 - - 0.0
20/03:00pm 9.9 8.6 6.1 77 1.8 S 2 6 1 3 - - 0.0
20/02:30pm 9.9 8.6 6.1 77 1.8 S 2 6 1 3 - - 0.0
20/02:00pm 10.2 9.1 6.7 79 1.7 SSW 2 7 1 4 - - 0.0
20/01:30pm 10.1 8.6 6.6 79 1.7 SSW 4 7 2 4 - - 0.0
20/01:00pm 10.0 9.2 6.7 80 1.6 CALM 0 2 0 1 - - 0.0
20/12:30pm 10.0 8.9 5.2 72 2.2 CALM 0 4 0 2 - - 0.0
20/12:00pm 9.4 8.2 4.8 73 2.1 CALM 0 4 0 2 - - 0.0

Other Formats:

Comma delimited format used in spreadsheet applications
http://www.bom.gov.au/fwo/IDV60801/IDV60801.95913.axf

JavaScript Object Notation format (JSON) in row-major order
http://www.bom.gov.au/fwo/IDV60801/IDV60801.95913.json